sensor_id;sensor_type;location;lat;lon;timestamp;P1;durP1;ratioP1;P2;durP2;ratioP2
20076;SDS011;12348;42.710;23.378;2022-08-21T00:00:18;11.23;;;6.20;;
20076;SDS011;12348;42.710;23.378;2022-08-21T00:02:53;11.50;;;6.87;;
20076;SDS011;12348;42.710;23.378;2022-08-21T00:05:21;17.43;;;9.00;;
20076;SDS011;12348;42.710;23.378;2022-08-21T00:07:49;18.20;;;7.77;;
20076;SDS011;12348;42.710;23.378;2022-08-21T00:10:16;12.27;;;7.33;;
20076;SDS011;12348;42.710;23.378;2022-08-21T00:12:43;14.10;;;7.43;;
20076;SDS011;12348;42.710;23.378;2022-08-21T00:15:12;15.47;;;8.43;;
20076;SDS011;12348;42.710;23.378;2022-08-21T00:17:40;16.30;;;7.77;;
20076;SDS011;12348;42.710;23.378;2022-08-21T00:20:12;18.37;;;7.70;;
20076;SDS011;12348;42.710;23.378;2022-08-21T00:22:41;14.73;;;7.57;;
20076;SDS011;12348;42.710;23.378;2022-08-21T00:25:08;18.27;;;8.47;;
20076;SDS011;12348;42.710;23.378;2022-08-21T00:27:37;14.73;;;8.10;;
20076;SDS011;12348;42.710;23.378;2022-08-21T00:30:05;15.27;;;8.73;;
20076;SDS011;12348;42.710;23.378;2022-08-21T00:32:33;14.97;;;8.60;;
20076;SDS011;12348;42.710;23.378;2022-08-21T00:35:00;17.50;;;8.50;;
20076;SDS011;12348;42.710;23.378;2022-08-21T00:37:28;24.47;;;9.83;;
20076;SDS011;12348;42.710;23.378;2022-08-21T00:39:55;16.40;;;8.57;;
20076;SDS011;12348;42.710;23.378;2022-08-21T00:42:21;20.67;;;10.23;;
20076;SDS011;12348;42.710;23.378;2022-08-21T00:44:49;21.77;;;10.77;;
20076;SDS011;12348;42.710;23.378;2022-08-21T00:47:16;20.23;;;10.73;;
20076;SDS011;12348;42.710;23.378;2022-08-21T00:49:44;22.17;;;10.50;;
20076;SDS011;12348;42.710;23.378;2022-08-21T00:52:13;23.87;;;10.53;;
20076;SDS011;12348;42.710;23.378;2022-08-21T00:54:49;22.97;;;10.90;;
20076;SDS011;12348;42.710;23.378;2022-08-21T00:57:17;25.47;;;12.07;;
20076;SDS011;12348;42.710;23.378;2022-08-21T00:59:47;24.60;;;11.93;;
20076;SDS011;12348;42.710;23.378;2022-08-21T01:02:17;30.13;;;13.43;;
20076;SDS011;12348;42.710;23.378;2022-08-21T01:04:45;23.90;;;12.63;;
20076;SDS011;12348;42.710;23.378;2022-08-21T01:07:12;22.73;;;12.13;;
20076;SDS011;12348;42.710;23.378;2022-08-21T01:09:39;25.60;;;13.47;;
20076;SDS011;12348;42.710;23.378;2022-08-21T01:12:08;26.57;;;13.33;;
20076;SDS011;12348;42.710;23.378;2022-08-21T01:14:36;25.30;;;12.77;;
20076;SDS011;12348;42.710;23.378;2022-08-21T01:17:03;27.07;;;13.10;;
20076;SDS011;12348;42.710;23.378;2022-08-21T01:19:30;27.90;;;13.57;;
20076;SDS011;12348;42.710;23.378;2022-08-21T01:21:59;35.40;;;14.77;;
20076;SDS011;12348;42.710;23.378;2022-08-21T01:24:26;26.97;;;13.67;;
20076;SDS011;12348;42.710;23.378;2022-08-21T01:26:52;24.33;;;12.10;;
20076;SDS011;12348;42.710;23.378;2022-08-21T01:29:23;24.20;;;12.10;;
20076;SDS011;12348;42.710;23.378;2022-08-21T01:31:56;30.83;;;11.83;;
20076;SDS011;12348;42.710;23.378;2022-08-21T01:34:24;25.80;;;12.87;;
20076;SDS011;12348;42.710;23.378;2022-08-21T01:36:51;27.43;;;12.87;;
20076;SDS011;12348;42.710;23.378;2022-08-21T01:39:19;21.63;;;12.40;;
20076;SDS011;12348;42.710;23.378;2022-08-21T01:41:46;22.07;;;12.27;;
20076;SDS011;12348;42.710;23.378;2022-08-21T01:44:13;26.60;;;13.00;;
20076;SDS011;12348;42.710;23.378;2022-08-21T01:46:40;23.90;;;12.60;;
20076;SDS011;12348;42.710;23.378;2022-08-21T01:49:06;27.07;;;12.50;;
20076;SDS011;12348;42.710;23.378;2022-08-21T01:51:34;32.47;;;14.07;;
20076;SDS011;12348;42.710;23.378;2022-08-21T01:54:00;25.80;;;13.40;;
20076;SDS011;12348;42.710;23.378;2022-08-21T01:56:31;27.00;;;14.83;;
20076;SDS011;12348;42.710;23.378;2022-08-21T01:59:02;28.63;;;14.33;;
20076;SDS011;12348;42.710;23.378;2022-08-21T02:01:29;26.80;;;13.13;;
20076;SDS011;12348;42.710;23.378;2022-08-21T02:03:56;31.40;;;13.37;;
20076;SDS011;12348;42.710;23.378;2022-08-21T02:06:23;22.33;;;11.43;;
20076;SDS011;12348;42.710;23.378;2022-08-21T02:08:49;18.07;;;9.80;;
20076;SDS011;12348;42.710;23.378;2022-08-21T02:11:16;17.57;;;10.37;;
20076;SDS011;12348;42.710;23.378;2022-08-21T02:13:45;21.20;;;10.97;;
20076;SDS011;12348;42.710;23.378;2022-08-21T02:16:12;15.53;;;10.53;;
20076;SDS011;12348;42.710;23.378;2022-08-21T02:18:39;21.70;;;11.13;;
20076;SDS011;12348;42.710;23.378;2022-08-21T02:21:06;20.63;;;10.90;;
20076;SDS011;12348;42.710;23.378;2022-08-21T02:23:33;23.13;;;11.70;;
20076;SDS011;12348;42.710;23.378;2022-08-21T02:26:01;20.00;;;10.97;;
20076;SDS011;12348;42.710;23.378;2022-08-21T02:28:30;20.67;;;11.20;;
20076;SDS011;12348;42.710;23.378;2022-08-21T02:30:59;18.00;;;10.07;;
20076;SDS011;12348;42.710;23.378;2022-08-21T02:33:28;20.30;;;12.17;;
20076;SDS011;12348;42.710;23.378;2022-08-21T02:35:55;23.93;;;12.13;;
20076;SDS011;12348;42.710;23.378;2022-08-21T02:38:23;24.60;;;12.17;;
20076;SDS011;12348;42.710;23.378;2022-08-21T02:40:52;28.97;;;13.03;;
20076;SDS011;12348;42.710;23.378;2022-08-21T02:43:20;30.13;;;14.30;;
20076;SDS011;12348;42.710;23.378;2022-08-21T02:45:48;28.80;;;13.47;;
20076;SDS011;12348;42.710;23.378;2022-08-21T02:48:19;28.57;;;13.43;;
20076;SDS011;12348;42.710;23.378;2022-08-21T02:50:53;28.00;;;13.63;;
20076;SDS011;12348;42.710;23.378;2022-08-21T02:53:22;30.37;;;13.60;;
20076;SDS011;12348;42.710;23.378;2022-08-21T02:55:50;30.47;;;12.80;;
20076;SDS011;12348;42.710;23.378;2022-08-21T02:58:18;24.23;;;13.50;;
20076;SDS011;12348;42.710;23.378;2022-08-21T03:00:46;30.93;;;12.40;;
20076;SDS011;12348;42.710;23.378;2022-08-21T03:03:13;29.80;;;14.63;;
20076;SDS011;12348;42.710;23.378;2022-08-21T03:05:41;29.17;;;14.97;;
20076;SDS011;12348;42.710;23.378;2022-08-21T03:08:11;27.07;;;14.33;;
20076;SDS011;12348;42.710;23.378;2022-08-21T03:10:39;25.67;;;13.07;;
20076;SDS011;12348;42.710;23.378;2022-08-21T03:13:08;19.97;;;10.53;;
20076;SDS011;12348;42.710;23.378;2022-08-21T03:15:35;33.97;;;13.67;;
20076;SDS011;12348;42.710;23.378;2022-08-21T03:18:03;25.00;;;11.83;;
20076;SDS011;12348;42.710;23.378;2022-08-21T03:20:32;24.63;;;11.53;;
20076;SDS011;12348;42.710;23.378;2022-08-21T03:23:01;26.83;;;12.33;;
20076;SDS011;12348;42.710;23.378;2022-08-21T03:25:29;20.93;;;10.23;;
20076;SDS011;12348;42.710;23.378;2022-08-21T03:27:57;20.23;;;10.63;;
20076;SDS011;12348;42.710;23.378;2022-08-21T03:30:24;28.03;;;11.80;;
20076;SDS011;12348;42.710;23.378;2022-08-21T03:32:51;20.40;;;10.63;;
20076;SDS011;12348;42.710;23.378;2022-08-21T03:35:18;19.67;;;9.83;;
20076;SDS011;12348;42.710;23.378;2022-08-21T03:37:45;24.43;;;12.20;;
20076;SDS011;12348;42.710;23.378;2022-08-21T03:40:15;21.63;;;11.63;;
20076;SDS011;12348;42.710;23.378;2022-08-21T03:42:44;24.50;;;12.03;;
20076;SDS011;12348;42.710;23.378;2022-08-21T03:45:12;26.37;;;13.37;;
20076;SDS011;12348;42.710;23.378;2022-08-21T03:47:49;25.10;;;12.13;;
20076;SDS011;12348;42.710;23.378;2022-08-21T03:50:17;24.30;;;12.07;;
20076;SDS011;12348;42.710;23.378;2022-08-21T03:52:44;24.93;;;11.43;;
20076;SDS011;12348;42.710;23.378;2022-08-21T03:55:11;23.40;;;11.80;;
20076;SDS011;12348;42.710;23.378;2022-08-21T03:57:39;20.20;;;10.03;;
20076;SDS011;12348;42.710;23.378;2022-08-21T04:00:06;19.10;;;8.73;;
20076;SDS011;12348;42.710;23.378;2022-08-21T04:02:35;19.17;;;9.10;;
20076;SDS011;12348;42.710;23.378;2022-08-21T04:05:02;15.50;;;9.23;;
20076;SDS011;12348;42.710;23.378;2022-08-21T04:07:29;20.37;;;10.40;;
20076;SDS011;12348;42.710;23.378;2022-08-21T04:09:56;14.97;;;8.67;;
20076;SDS011;12348;42.710;23.378;2022-08-21T04:12:23;17.17;;;9.37;;
20076;SDS011;12348;42.710;23.378;2022-08-21T04:14:51;20.70;;;9.70;;
20076;SDS011;12348;42.710;23.378;2022-08-21T04:17:17;20.53;;;8.37;;
20076;SDS011;12348;42.710;23.378;2022-08-21T04:19:44;26.33;;;10.80;;
20076;SDS011;12348;42.710;23.378;2022-08-21T04:22:12;27.87;;;10.30;;
20076;SDS011;12348;42.710;23.378;2022-08-21T04:24:39;17.27;;;9.27;;
20076;SDS011;12348;42.710;23.378;2022-08-21T04:27:06;19.10;;;10.37;;
20076;SDS011;12348;42.710;23.378;2022-08-21T04:29:33;17.90;;;10.00;;
20076;SDS011;12348;42.710;23.378;2022-08-21T04:32:01;16.90;;;9.20;;
20076;SDS011;12348;42.710;23.378;2022-08-21T04:34:28;18.67;;;10.10;;
20076;SDS011;12348;42.710;23.378;2022-08-21T04:36:55;16.87;;;9.77;;
20076;SDS011;12348;42.710;23.378;2022-08-21T04:39:22;18.63;;;9.43;;
20076;SDS011;12348;42.710;23.378;2022-08-21T04:41:48;26.37;;;10.53;;
20076;SDS011;12348;42.710;23.378;2022-08-21T04:44:15;13.53;;;8.47;;
20076;SDS011;12348;42.710;23.378;2022-08-21T04:46:42;23.33;;;12.30;;
20076;SDS011;12348;42.710;23.378;2022-08-21T04:49:11;21.30;;;12.07;;
20076;SDS011;12348;42.710;23.378;2022-08-21T04:51:38;24.33;;;10.97;;
20076;SDS011;12348;42.710;23.378;2022-08-21T04:54:06;23.57;;;11.30;;
20076;SDS011;12348;42.710;23.378;2022-08-21T04:56:39;21.87;;;11.30;;
20076;SDS011;12348;42.710;23.378;2022-08-21T04:59:11;20.60;;;10.30;;
20076;SDS011;12348;42.710;23.378;2022-08-21T05:01:41;17.30;;;9.73;;
20076;SDS011;12348;42.710;23.378;2022-08-21T05:04:12;18.83;;;10.60;;
20076;SDS011;12348;42.710;23.378;2022-08-21T05:06:42;19.13;;;10.30;;
20076;SDS011;12348;42.710;23.378;2022-08-21T05:09:13;19.90;;;9.93;;
20076;SDS011;12348;42.710;23.378;2022-08-21T05:11:42;18.50;;;9.93;;
20076;SDS011;12348;42.710;23.378;2022-08-21T05:14:10;13.57;;;9.03;;
20076;SDS011;12348;42.710;23.378;2022-08-21T05:16:37;15.27;;;9.30;;
20076;SDS011;12348;42.710;23.378;2022-08-21T05:19:04;15.73;;;10.40;;
20076;SDS011;12348;42.710;23.378;2022-08-21T05:21:33;15.27;;;9.00;;
20076;SDS011;12348;42.710;23.378;2022-08-21T05:24:00;21.17;;;12.97;;
20076;SDS011;12348;42.710;23.378;2022-08-21T05:26:27;15.17;;;9.93;;
20076;SDS011;12348;42.710;23.378;2022-08-21T05:28:54;12.13;;;7.87;;
20076;SDS011;12348;42.710;23.378;2022-08-21T05:31:21;14.73;;;8.50;;
20076;SDS011;12348;42.710;23.378;2022-08-21T05:33:48;14.53;;;7.43;;
20076;SDS011;12348;42.710;23.378;2022-08-21T05:36:16;14.30;;;8.80;;
20076;SDS011;12348;42.710;23.378;2022-08-21T05:38:44;11.73;;;7.30;;
20076;SDS011;12348;42.710;23.378;2022-08-21T05:41:11;14.90;;;8.53;;
20076;SDS011;12348;42.710;23.378;2022-08-21T05:43:38;15.60;;;8.40;;
20076;SDS011;12348;42.710;23.378;2022-08-21T05:46:05;15.50;;;8.40;;
20076;SDS011;12348;42.710;23.378;2022-08-21T05:48:34;17.33;;;8.93;;
20076;SDS011;12348;42.710;23.378;2022-08-21T05:51:03;11.83;;;8.07;;
20076;SDS011;12348;42.710;23.378;2022-08-21T05:53:31;14.47;;;9.73;;
20076;SDS011;12348;42.710;23.378;2022-08-21T05:56:00;9.77;;;6.90;;
20076;SDS011;12348;42.710;23.378;2022-08-21T05:58:29;14.43;;;7.90;;
20076;SDS011;12348;42.710;23.378;2022-08-21T06:00:57;9.93;;;5.50;;
20076;SDS011;12348;42.710;23.378;2022-08-21T06:03:25;10.60;;;6.33;;
20076;SDS011;12348;42.710;23.378;2022-08-21T06:05:56;19.80;;;6.63;;
20076;SDS011;12348;42.710;23.378;2022-08-21T06:08:23;10.73;;;7.33;;
20076;SDS011;12348;42.710;23.378;2022-08-21T06:10:51;13.57;;;7.30;;
20076;SDS011;12348;42.710;23.378;2022-08-21T06:13:22;11.10;;;6.27;;
20076;SDS011;12348;42.710;23.378;2022-08-21T06:15:49;17.47;;;9.07;;
20076;SDS011;12348;42.710;23.378;2022-08-21T06:18:16;8.57;;;6.80;;
20076;SDS011;12348;42.710;23.378;2022-08-21T06:20:43;12.07;;;7.10;;
20076;SDS011;12348;42.710;23.378;2022-08-21T06:23:10;11.23;;;7.67;;
20076;SDS011;12348;42.710;23.378;2022-08-21T06:25:37;10.77;;;6.20;;
20076;SDS011;12348;42.710;23.378;2022-08-21T06:28:06;12.13;;;6.37;;
20076;SDS011;12348;42.710;23.378;2022-08-21T06:30:35;8.13;;;5.73;;
20076;SDS011;12348;42.710;23.378;2022-08-21T06:33:03;9.77;;;5.63;;
20076;SDS011;12348;42.710;23.378;2022-08-21T06:35:31;9.47;;;6.37;;
20076;SDS011;12348;42.710;23.378;2022-08-21T06:37:58;10.80;;;7.20;;
20076;SDS011;12348;42.710;23.378;2022-08-21T06:40:25;11.07;;;7.03;;
20076;SDS011;12348;42.710;23.378;2022-08-21T06:42:52;10.27;;;6.77;;
20076;SDS011;12348;42.710;23.378;2022-08-21T06:45:19;10.77;;;7.70;;
20076;SDS011;12348;42.710;23.378;2022-08-21T06:47:47;11.90;;;8.30;;
20076;SDS011;12348;42.710;23.378;2022-08-21T06:50:14;9.50;;;7.43;;
20076;SDS011;12348;42.710;23.378;2022-08-21T06:52:41;18.30;;;12.30;;
20076;SDS011;12348;42.710;23.378;2022-08-21T06:55:09;17.13;;;10.70;;
20076;SDS011;12348;42.710;23.378;2022-08-21T06:57:36;11.27;;;7.37;;
20076;SDS011;12348;42.710;23.378;2022-08-21T07:00:03;13.47;;;7.90;;
20076;SDS011;12348;42.710;23.378;2022-08-21T07:02:31;13.30;;;8.20;;
20076;SDS011;12348;42.710;23.378;2022-08-21T07:05:00;12.43;;;6.20;;
20076;SDS011;12348;42.710;23.378;2022-08-21T07:07:27;9.20;;;5.90;;
20076;SDS011;12348;42.710;23.378;2022-08-21T07:09:54;9.60;;;6.60;;
20076;SDS011;12348;42.710;23.378;2022-08-21T07:12:20;9.43;;;5.45;;
20076;SDS011;12348;42.710;23.378;2022-08-21T07:14:47;13.85;;;6.18;;
20076;SDS011;12348;42.710;23.378;2022-08-21T07:17:14;10.32;;;7.38;;
20076;SDS011;12348;42.710;23.378;2022-08-21T07:19:41;13.57;;;6.72;;
20076;SDS011;12348;42.710;23.378;2022-08-21T07:22:09;10.52;;;7.47;;
20076;SDS011;12348;42.710;23.378;2022-08-21T07:24:36;8.23;;;5.00;;
20076;SDS011;12348;42.710;23.378;2022-08-21T07:27:03;8.52;;;6.43;;
20076;SDS011;12348;42.710;23.378;2022-08-21T07:29:30;9.88;;;6.20;;
20076;SDS011;12348;42.710;23.378;2022-08-21T07:31:56;10.45;;;5.55;;
20076;SDS011;12348;42.710;23.378;2022-08-21T07:34:23;7.65;;;4.55;;
20076;SDS011;12348;42.710;23.378;2022-08-21T07:36:50;7.18;;;5.20;;
20076;SDS011;12348;42.710;23.378;2022-08-21T07:39:18;5.78;;;4.50;;
20076;SDS011;12348;42.710;23.378;2022-08-21T07:41:45;8.10;;;4.70;;
20076;SDS011;12348;42.710;23.378;2022-08-21T07:44:12;5.90;;;4.72;;
20076;SDS011;12348;42.710;23.378;2022-08-21T07:46:38;6.53;;;5.00;;
20076;SDS011;12348;42.710;23.378;2022-08-21T07:49:05;8.38;;;6.90;;
20076;SDS011;12348;42.710;23.378;2022-08-21T07:51:32;6.00;;;4.82;;
20076;SDS011;12348;42.710;23.378;2022-08-21T07:54:00;7.35;;;5.53;;
20076;SDS011;12348;42.710;23.378;2022-08-21T07:56:29;12.68;;;6.72;;
20076;SDS011;12348;42.710;23.378;2022-08-21T07:58:57;7.75;;;5.47;;
20076;SDS011;12348;42.710;23.378;2022-08-21T08:01:24;11.05;;;5.40;;
20076;SDS011;12348;42.710;23.378;2022-08-21T08:03:51;10.35;;;7.00;;
20076;SDS011;12348;42.710;23.378;2022-08-21T08:06:18;6.75;;;5.10;;
20076;SDS011;12348;42.710;23.378;2022-08-21T08:08:45;7.93;;;5.13;;
20076;SDS011;12348;42.710;23.378;2022-08-21T08:11:12;9.23;;;4.90;;
20076;SDS011;12348;42.710;23.378;2022-08-21T08:13:43;5.55;;;4.07;;
20076;SDS011;12348;42.710;23.378;2022-08-21T08:16:11;7.45;;;4.95;;
20076;SDS011;12348;42.710;23.378;2022-08-21T08:18:38;7.85;;;4.60;;
20076;SDS011;12348;42.710;23.378;2022-08-21T08:21:06;7.10;;;5.20;;
20076;SDS011;12348;42.710;23.378;2022-08-21T08:23:33;10.52;;;5.05;;
20076;SDS011;12348;42.710;23.378;2022-08-21T08:26:01;5.72;;;4.30;;
20076;SDS011;12348;42.710;23.378;2022-08-21T08:28:28;10.07;;;5.78;;
20076;SDS011;12348;42.710;23.378;2022-08-21T08:30:58;6.72;;;4.82;;
20076;SDS011;12348;42.710;23.378;2022-08-21T08:33:26;6.90;;;4.90;;
20076;SDS011;12348;42.710;23.378;2022-08-21T08:35:53;7.43;;;4.70;;
20076;SDS011;12348;42.710;23.378;2022-08-21T08:38:22;7.13;;;4.97;;
20076;SDS011;12348;42.710;23.378;2022-08-21T08:40:52;7.97;;;4.53;;
20076;SDS011;12348;42.710;23.378;2022-08-21T08:43:25;12.87;;;6.40;;
20076;SDS011;12348;42.710;23.378;2022-08-21T08:45:53;8.10;;;5.27;;
20076;SDS011;12348;42.710;23.378;2022-08-21T08:48:30;8.90;;;5.10;;
20076;SDS011;12348;42.710;23.378;2022-08-21T08:51:02;7.73;;;6.07;;
20076;SDS011;12348;42.710;23.378;2022-08-21T08:53:35;8.80;;;5.70;;
20076;SDS011;12348;42.710;23.378;2022-08-21T08:56:12;18.83;;;9.60;;
20076;SDS011;12348;42.710;23.378;2022-08-21T08:58:39;7.87;;;5.20;;
20076;SDS011;12348;42.710;23.378;2022-08-21T09:01:11;10.00;;;4.40;;
20076;SDS011;12348;42.710;23.378;2022-08-21T09:03:43;8.50;;;4.73;;
20076;SDS011;12348;42.710;23.378;2022-08-21T09:06:17;8.73;;;5.73;;
20076;SDS011;12348;42.710;23.378;2022-08-21T09:08:53;10.63;;;5.13;;
20076;SDS011;12348;42.710;23.378;2022-08-21T09:11:27;6.30;;;4.37;;
20076;SDS011;12348;42.710;23.378;2022-08-21T09:13:58;5.80;;;4.20;;
20076;SDS011;12348;42.710;23.378;2022-08-21T09:16:38;7.00;;;4.80;;
20076;SDS011;12348;42.710;23.378;2022-08-21T09:19:18;8.73;;;4.40;;
20076;SDS011;12348;42.710;23.378;2022-08-21T09:22:02;7.67;;;5.23;;
20076;SDS011;12348;42.710;23.378;2022-08-21T09:24:36;8.07;;;5.17;;
20076;SDS011;12348;42.710;23.378;2022-08-21T09:27:10;6.57;;;4.80;;
20076;SDS011;12348;42.710;23.378;2022-08-21T09:29:39;8.17;;;4.50;;
20076;SDS011;12348;42.710;23.378;2022-08-21T09:32:11;8.87;;;5.47;;
20076;SDS011;12348;42.710;23.378;2022-08-21T09:34:54;9.37;;;4.17;;
20076;SDS011;12348;42.710;23.378;2022-08-21T09:37:22;5.27;;;4.10;;
20076;SDS011;12348;42.710;23.378;2022-08-21T09:39:49;6.43;;;4.17;;
20076;SDS011;12348;42.710;23.378;2022-08-21T09:42:21;8.50;;;4.20;;
20076;SDS011;12348;42.710;23.378;2022-08-21T09:45:00;7.20;;;4.60;;
20076;SDS011;12348;42.710;23.378;2022-08-21T09:47:34;5.27;;;3.60;;
20076;SDS011;12348;42.710;23.378;2022-08-21T09:50:09;4.60;;;3.70;;
20076;SDS011;12348;42.710;23.378;2022-08-21T09:52:43;6.10;;;3.80;;
20076;SDS011;12348;42.710;23.378;2022-08-21T09:55:15;11.00;;;5.30;;
20076;SDS011;12348;42.710;23.378;2022-08-21T09:57:58;9.33;;;3.90;;
20076;SDS011;12348;42.710;23.378;2022-08-21T10:00:27;7.17;;;3.83;;
20076;SDS011;12348;42.710;23.378;2022-08-21T10:02:56;7.07;;;4.70;;
20076;SDS011;12348;42.710;23.378;2022-08-21T10:05:36;6.07;;;4.10;;
20076;SDS011;12348;42.710;23.378;2022-08-21T10:08:04;5.07;;;4.07;;
20076;SDS011;12348;42.710;23.378;2022-08-21T10:10:31;9.10;;;4.50;;
20076;SDS011;12348;42.710;23.378;2022-08-21T10:13:07;8.00;;;3.73;;
20076;SDS011;12348;42.710;23.378;2022-08-21T10:15:42;8.70;;;4.27;;
20076;SDS011;12348;42.710;23.378;2022-08-21T10:18:19;6.43;;;4.37;;
20076;SDS011;12348;42.710;23.378;2022-08-21T10:20:52;9.23;;;4.40;;
20076;SDS011;12348;42.710;23.378;2022-08-21T10:23:29;8.03;;;5.20;;
20076;SDS011;12348;42.710;23.378;2022-08-21T10:26:22;9.73;;;6.10;;
20076;SDS011;12348;42.710;23.378;2022-08-21T10:28:58;10.67;;;5.17;;
20076;SDS011;12348;42.710;23.378;2022-08-21T10:31:35;8.73;;;4.03;;
20076;SDS011;12348;42.710;23.378;2022-08-21T10:34:12;7.97;;;4.60;;
20076;SDS011;12348;42.710;23.378;2022-08-21T10:36:56;5.57;;;4.17;;
20076;SDS011;12348;42.710;23.378;2022-08-21T10:39:33;9.47;;;4.87;;
20076;SDS011;12348;42.710;23.378;2022-08-21T10:42:08;5.83;;;4.30;;
20076;SDS011;12348;42.710;23.378;2022-08-21T10:44:57;6.67;;;4.13;;
20076;SDS011;12348;42.710;23.378;2022-08-21T10:47:37;5.67;;;3.60;;
20076;SDS011;12348;42.710;23.378;2022-08-21T10:50:12;6.13;;;3.70;;
20076;SDS011;12348;42.710;23.378;2022-08-21T10:52:56;6.37;;;3.10;;
20076;SDS011;12348;42.710;23.378;2022-08-21T10:55:48;4.87;;;3.23;;
20076;SDS011;12348;42.710;23.378;2022-08-21T10:58:23;5.40;;;4.20;;
20076;SDS011;12348;42.710;23.378;2022-08-21T11:00:55;5.83;;;4.10;;
20076;SDS011;12348;42.710;23.378;2022-08-21T11:03:28;11.80;;;4.67;;
20076;SDS011;12348;42.710;23.378;2022-08-21T11:06:00;8.17;;;4.27;;
20076;SDS011;12348;42.710;23.378;2022-08-21T11:08:33;7.67;;;3.60;;
20076;SDS011;12348;42.710;23.378;2022-08-21T11:11:05;4.87;;;3.77;;
20076;SDS011;12348;42.710;23.378;2022-08-21T11:13:38;6.90;;;3.60;;
20076;SDS011;12348;42.710;23.378;2022-08-21T11:16:10;6.20;;;3.43;;
20076;SDS011;12348;42.710;23.378;2022-08-21T11:18:44;6.67;;;3.70;;
20076;SDS011;12348;42.710;23.378;2022-08-21T11:21:23;6.83;;;3.70;;
20076;SDS011;12348;42.710;23.378;2022-08-21T11:23:59;4.97;;;3.07;;
20076;SDS011;12348;42.710;23.378;2022-08-21T11:26:37;5.17;;;3.20;;
20076;SDS011;12348;42.710;23.378;2022-08-21T11:29:09;7.00;;;3.73;;
20076;SDS011;12348;42.710;23.378;2022-08-21T11:31:44;4.17;;;3.47;;
20076;SDS011;12348;42.710;23.378;2022-08-21T11:34:23;4.63;;;3.23;;
20076;SDS011;12348;42.710;23.378;2022-08-21T11:37:03;7.70;;;4.37;;
20076;SDS011;12348;42.710;23.378;2022-08-21T11:39:40;4.80;;;3.13;;
20076;SDS011;12348;42.710;23.378;2022-08-21T11:42:18;4.77;;;3.63;;
20076;SDS011;12348;42.710;23.378;2022-08-21T11:44:53;8.33;;;4.63;;
20076;SDS011;12348;42.710;23.378;2022-08-21T11:47:31;4.93;;;3.80;;
20076;SDS011;12348;42.710;23.378;2022-08-21T11:50:08;6.17;;;3.97;;
20076;SDS011;12348;42.710;23.378;2022-08-21T11:52:42;7.77;;;4.03;;
20076;SDS011;12348;42.710;23.378;2022-08-21T11:55:16;5.70;;;4.30;;
20076;SDS011;12348;42.710;23.378;2022-08-21T11:57:50;7.53;;;5.67;;
20076;SDS011;12348;42.710;23.378;2022-08-21T12:00:22;7.77;;;4.70;;
20076;SDS011;12348;42.710;23.378;2022-08-21T12:02:54;6.13;;;3.90;;
20076;SDS011;12348;42.710;23.378;2022-08-21T12:05:26;7.60;;;5.57;;
20076;SDS011;12348;42.710;23.378;2022-08-21T12:08:01;8.00;;;4.70;;
20076;SDS011;12348;42.710;23.378;2022-08-21T12:10:33;9.07;;;5.43;;
20076;SDS011;12348;42.710;23.378;2022-08-21T12:13:06;8.33;;;4.57;;
20076;SDS011;12348;42.710;23.378;2022-08-21T12:15:36;8.10;;;5.50;;
20076;SDS011;12348;42.710;23.378;2022-08-21T12:18:04;8.00;;;5.83;;
20076;SDS011;12348;42.710;23.378;2022-08-21T12:20:39;9.93;;;4.47;;
20076;SDS011;12348;42.710;23.378;2022-08-21T12:23:24;9.03;;;4.53;;
20076;SDS011;12348;42.710;23.378;2022-08-21T12:26:11;6.87;;;4.50;;
20076;SDS011;12348;42.710;23.378;2022-08-21T12:28:46;5.63;;;4.03;;
20076;SDS011;12348;42.710;23.378;2022-08-21T12:31:20;5.20;;;4.40;;
20076;SDS011;12348;42.710;23.378;2022-08-21T12:33:50;4.83;;;4.07;;
20076;SDS011;12348;42.710;23.378;2022-08-21T12:36:22;7.33;;;4.57;;
20076;SDS011;12348;42.710;23.378;2022-08-21T12:38:52;6.50;;;4.80;;
20076;SDS011;12348;42.710;23.378;2022-08-21T12:41:26;7.60;;;4.50;;
20076;SDS011;12348;42.710;23.378;2022-08-21T12:43:57;7.97;;;4.43;;
20076;SDS011;12348;42.710;23.378;2022-08-21T12:46:29;8.13;;;4.00;;
20076;SDS011;12348;42.710;23.378;2022-08-21T12:49:07;7.33;;;4.73;;
20076;SDS011;12348;42.710;23.378;2022-08-21T12:51:46;5.23;;;3.90;;
20076;SDS011;12348;42.710;23.378;2022-08-21T12:54:23;7.60;;;4.37;;
20076;SDS011;12348;42.710;23.378;2022-08-21T12:57:00;7.13;;;4.17;;
20076;SDS011;12348;42.710;23.378;2022-08-21T12:59:28;5.73;;;3.77;;
20076;SDS011;12348;42.710;23.378;2022-08-21T13:01:56;6.23;;;3.83;;
20076;SDS011;12348;42.710;23.378;2022-08-21T13:04:27;6.23;;;4.50;;
20076;SDS011;12348;42.710;23.378;2022-08-21T13:07:04;6.10;;;3.70;;
20076;SDS011;12348;42.710;23.378;2022-08-21T13:09:35;6.83;;;3.50;;
20076;SDS011;12348;42.710;23.378;2022-08-21T13:12:11;8.43;;;4.03;;
20076;SDS011;12348;42.710;23.378;2022-08-21T13:14:41;6.00;;;4.07;;
20076;SDS011;12348;42.710;23.378;2022-08-21T13:17:12;10.53;;;4.83;;
20076;SDS011;12348;42.710;23.378;2022-08-21T13:19:40;6.43;;;4.10;;
20076;SDS011;12348;42.710;23.378;2022-08-21T13:22:14;5.60;;;4.00;;
20076;SDS011;12348;42.710;23.378;2022-08-21T13:24:46;4.90;;;3.97;;
20076;SDS011;12348;42.710;23.378;2022-08-21T13:27:23;5.90;;;4.07;;
20076;SDS011;12348;42.710;23.378;2022-08-21T13:30:06;6.87;;;3.63;;
20076;SDS011;12348;42.710;23.378;2022-08-21T13:32:35;4.60;;;3.60;;
20076;SDS011;12348;42.710;23.378;2022-08-21T13:35:13;9.33;;;3.83;;
20076;SDS011;12348;42.710;23.378;2022-08-21T13:37:44;9.40;;;4.40;;
20076;SDS011;12348;42.710;23.378;2022-08-21T13:40:14;7.57;;;3.50;;
20076;SDS011;12348;42.710;23.378;2022-08-21T13:42:45;6.73;;;4.43;;
20076;SDS011;12348;42.710;23.378;2022-08-21T13:45:16;9.27;;;4.83;;
20076;SDS011;12348;42.710;23.378;2022-08-21T13:47:48;6.67;;;4.50;;
20076;SDS011;12348;42.710;23.378;2022-08-21T13:50:15;5.57;;;3.77;;
20076;SDS011;12348;42.710;23.378;2022-08-21T13:52:48;6.13;;;3.50;;
20076;SDS011;12348;42.710;23.378;2022-08-21T13:55:23;9.33;;;3.93;;
20076;SDS011;12348;42.710;23.378;2022-08-21T13:58:02;5.23;;;4.20;;
20076;SDS011;12348;42.710;23.378;2022-08-21T14:00:31;8.10;;;4.00;;
20076;SDS011;12348;42.710;23.378;2022-08-21T14:03:01;5.57;;;4.00;;
20076;SDS011;12348;42.710;23.378;2022-08-21T14:05:34;11.67;;;5.53;;
20076;SDS011;12348;42.710;23.378;2022-08-21T14:08:04;12.27;;;4.37;;
20076;SDS011;12348;42.710;23.378;2022-08-21T14:10:35;8.27;;;5.17;;
20076;SDS011;12348;42.710;23.378;2022-08-21T14:13:14;6.77;;;3.57;;
20076;SDS011;12348;42.710;23.378;2022-08-21T14:15:54;8.27;;;5.27;;
20076;SDS011;12348;42.710;23.378;2022-08-21T14:18:24;5.30;;;3.83;;
20076;SDS011;12348;42.710;23.378;2022-08-21T14:20:51;7.87;;;4.40;;
20076;SDS011;12348;42.710;23.378;2022-08-21T14:23:29;6.77;;;3.90;;
20076;SDS011;12348;42.710;23.378;2022-08-21T14:25:58;8.40;;;3.87;;
20076;SDS011;12348;42.710;23.378;2022-08-21T14:28:29;5.17;;;4.27;;
20076;SDS011;12348;42.710;23.378;2022-08-21T14:30:58;5.83;;;3.63;;
20076;SDS011;12348;42.710;23.378;2022-08-21T14:33:39;5.13;;;3.63;;
20076;SDS011;12348;42.710;23.378;2022-08-21T14:36:06;7.63;;;4.10;;
20076;SDS011;12348;42.710;23.378;2022-08-21T14:38:34;5.10;;;3.97;;
20076;SDS011;12348;42.710;23.378;2022-08-21T14:41:03;4.83;;;3.43;;